Capitol Logistics 212


KRIV
March Air Reserve Base
Riverside, California, US
KSMF
Sacramento International Airport
Sacramento, California, US

Activity Log

Date Flight Route Aircraft Duration
03/30/2020 CPX212 SKYES4 OCN J1 LAX J5 EHF NURAY SUUTR2 B763 1h 38m
01/31/2019 CPX212 SKYES3 TRM HEC NURAY SUUTR2 B763 1h 29m

Route Details

Aircraft Information
Primary: Boeing 767-300BDSF
Backup: Not Available
Route Data
Distance: 362nm
Sched. Duration: 1h 10m
Avg. Duration: 1h 33m (+24m)
Times Flown: 2
Recm'd Route: SLI J78 LAX J5 LANDO NURAY SUUTR2
Planned Altitude: 36,000ft
Origin Wx: KRIV 061058Z AUTO 00000KT 10SM CLR 16/09 A2987 RMK AO2 SLP100 T01580085
Dest. Wx: KSMF 061053Z 16007KT 10SM CLR 18/10 A2983 RMK AO2 SLP101 T01780100
Notes:

Financial History
Total Freight: 173,540lbs
Average Load: 86,770lbs/flt
Fuel Used: 33,652lbs
Avg. Fuel Used: 16,826lbs/flt
Fuel Expense: $23,220
Avg. Fuel Expense: $11,610
Avg. Fuel Cost: $0.69/lbs
Total Gross Income: $217,983
Pilot Pay: $428
Total Expenses: $23,646
Total Revenue: $170,375
Average Revenue: $108,991.54